Time;durP1;ratioP1;P1;durP2;ratioP2;P2;SDS_P1;SDS_P2;PMS_P1;PMS_P2;Temp;Humidity;BMP_temperature;BMP_pressure;BME280_temperature;BME280_humidity;BME280_pressure;Samples;Min_cycle;Max_cycle;Signal;HPM_P1;HPM_P2
2022/01/07 00:01:50;;;;;;;15.68;7.45;;;0.30;95.20;;;;;;5083441;28;20322;-77
2022/01/07 00:04:17;;;;;;;9.13;6.60;;;0.30;95.30;;;;;;5077484;28;20309;-76
2022/01/07 00:06:44;;;;;;;15.02;7.07;;;0.30;95.60;;;;;;5082674;28;20205;-77
2022/01/07 00:09:11;;;;;;;10.27;7.25;;;0.30;95.90;;;;;;5077219;28;20222;-75
2022/01/07 00:11:37;;;;;;;10.05;7.43;;;0.30;95.90;;;;;;5073358;28;20297;-75
2022/01/07 00:14:06;;;;;;;11.80;6.40;;;0.30;95.80;;;;;;5075322;28;20233;-76
2022/01/07 00:16:33;;;;;;;11.27;6.70;;;0.30;95.70;;;;;;5074694;28;20284;-75
2022/01/07 00:18:59;;;;;;;11.75;7.72;;;0.30;95.80;;;;;;5074406;28;20256;-76
2022/01/07 00:21:26;;;;;;;8.50;6.35;;;0.30;95.80;;;;;;5074780;28;20205;-77
2022/01/07 00:23:53;;;;;;;9.63;6.07;;;0.20;95.50;;;;;;5074743;28;20296;-76
2022/01/07 00:26:20;;;;;;;10.52;6.15;;;0.20;95.50;;;;;;5074300;28;20214;-75
2022/01/07 00:28:47;;;;;;;11.70;6.75;;;0.20;95.70;;;;;;5074978;28;20236;-78
2022/01/07 00:31:15;;;;;;;13.02;6.50;;;0.20;96.00;;;;;;5074140;28;20313;-76
2022/01/07 00:33:42;;;;;;;11.88;5.18;;;0.20;96.30;;;;;;5075971;28;20201;-76
2022/01/07 00:36:10;;;;;;;16.25;7.07;;;0.20;96.70;;;;;;5076856;28;20233;-75
2022/01/07 00:38:37;;;;;;;13.52;5.93;;;0.20;96.70;;;;;;5077182;28;20715;-75
2022/01/07 00:41:05;;;;;;;10.82;6.40;;;0.20;96.40;;;;;;5076944;28;20296;-77
2022/01/07 00:43:32;;;;;;;10.85;6.10;;;0.20;96.70;;;;;;5075149;28;20205;-76
2022/01/07 00:45:58;;;;;;;10.43;6.35;;;0.20;96.80;;;;;;5075032;28;20202;-75
2022/01/07 00:48:27;;;;;;;10.05;6.43;;;0.20;96.70;;;;;;5075124;28;20228;-75
2022/01/07 00:50:54;;;;;;;10.40;5.65;;;0.10;96.80;;;;;;5075347;28;20214;-74
2022/01/07 00:53:21;;;;;;;12.57;6.43;;;0.10;96.30;;;;;;5076582;28;20217;-78
2022/01/07 00:55:48;;;;;;;10.10;5.95;;;0.00;96.70;;;;;;5076714;28;20715;-76
2022/01/07 00:58:15;;;;;;;9.90;5.97;;;0.00;96.70;;;;;;5076555;28;20206;-76
2022/01/07 01:00:42;;;;;;;14.02;8.23;;;0.00;96.80;;;;;;5075973;28;20205;-76
2022/01/07 01:03:08;;;;;;;19.90;8.15;;;0.00;97.20;;;;;;5075869;28;20201;-76
2022/01/07 01:05:37;;;;;;;17.77;8.40;;;0.10;97.50;;;;;;5076420;28;20678;-77
2022/01/07 01:08:04;;;;;;;16.92;9.73;;;0.20;97.50;;;;;;5077341;28;20209;-75
2022/01/07 01:10:31;;;;;;;17.52;11.00;;;0.10;97.00;;;;;;5076469;28;20632;-75
2022/01/07 01:12:58;;;;;;;19.77;11.48;;;0.10;96.90;;;;;;5075994;28;20222;-78
2022/01/07 01:15:27;;;;;;;21.55;11.85;;;0.10;97.10;;;;;;5077504;28;20229;-75
2022/01/07 01:17:56;;;;;;;18.65;10.50;;;0.10;96.80;;;;;;5078024;28;20217;-76
2022/01/07 01:20:23;;;;;;;22.10;10.32;;;0.00;96.70;;;;;;5076882;28;20217;-76
2022/01/07 01:22:52;;;;;;;18.77;11.88;;;0.00;96.70;;;;;;5076271;28;20481;-76
2022/01/07 01:25:19;;;;;;;18.50;10.65;;;0.00;96.70;;;;;;5076457;28;20224;-75
2022/01/07 01:27:46;;;;;;;20.67;9.80;;;0.00;97.00;;;;;;5077011;28;20301;-76
2022/01/07 01:30:17;;;;;;;18.50;10.00;;;0.00;97.20;;;;;;5075178;28;20233;-76
2022/01/07 01:32:44;;;;;;;17.15;9.63;;;0.10;98.00;;;;;;5074280;28;20214;-77
2022/01/07 01:35:12;;;;;;;16.05;11.10;;;0.10;97.80;;;;;;5076356;28;20317;-76
2022/01/07 01:37:39;;;;;;;24.20;11.50;;;0.10;97.70;;;;;;5074747;28;20204;-75
2022/01/07 01:40:10;;;;;;;20.38;10.98;;;0.20;98.10;;;;;;5074308;28;20316;-76
2022/01/07 01:42:38;;;;;;;16.00;10.25;;;0.20;98.40;;;;;;5075822;28;20209;-76
2022/01/07 01:45:07;;;;;;;16.38;10.20;;;0.20;98.10;;;;;;5077419;28;20233;-76
2022/01/07 01:47:34;;;;;;;17.10;9.32;;;0.30;98.20;;;;;;5077846;28;20220;-75
2022/01/07 01:50:01;;;;;;;20.42;9.82;;;0.30;98.10;;;;;;5076244;28;20232;-78
2022/01/07 01:52:28;;;;;;;21.45;11.38;;;0.30;98.10;;;;;;5076473;28;20212;-76
2022/01/07 01:54:56;;;;;;;19.05;9.70;;;0.30;98.10;;;;;;5076249;28;20222;-77
2022/01/07 01:57:24;;;;;;;21.02;9.57;;;0.30;98.10;;;;;;5075300;28;20233;-77
2022/01/07 01:59:51;;;;;;;19.00;9.88;;;0.40;97.90;;;;;;5074659;28;20232;-76
2022/01/07 02:02:18;;;;;;;16.00;9.88;;;0.30;97.50;;;;;;5075920;28;20232;-76
2022/01/07 02:04:45;;;;;;;15.43;8.60;;;0.30;97.70;;;;;;5079434;28;20278;-76
2022/01/07 02:07:13;;;;;;;14.15;8.45;;;0.30;98.20;;;;;;5083082;28;20233;-77
2022/01/07 02:09:41;;;;;;;17.23;8.98;;;0.40;97.90;;;;;;5076102;28;20232;-76
2022/01/07 02:12:09;;;;;;;9.38;7.65;;;0.40;97.70;;;;;;5073852;28;20210;-76
2022/01/07 02:14:38;;;;;;;12.32;7.97;;;0.40;97.40;;;;;;5074026;28;20205;-76
2022/01/07 02:17:06;;;;;;;14.07;7.90;;;0.40;96.90;;;;;;5073407;28;20313;-77
2022/01/07 02:19:35;;;;;;;12.50;7.28;;;0.50;96.90;;;;;;5073930;28;20331;-77
2022/01/07 02:22:02;;;;;;;10.77;7.07;;;0.50;96.50;;;;;;5073543;28;20301;-75
2022/01/07 02:24:29;;;;;;;15.32;7.93;;;0.40;95.80;;;;;;5078012;28;20228;-77
2022/01/07 02:26:57;;;;;;;10.75;6.90;;;0.50;95.50;;;;;;5076746;28;20300;-76
2022/01/07 02:29:25;;;;;;;13.93;7.10;;;0.50;95.30;;;;;;5081350;28;20225;-79
2022/01/07 02:31:52;;;;;;;12.38;6.80;;;0.50;95.10;;;;;;5083888;28;20233;-76
2022/01/07 02:34:20;;;;;;;12.77;6.60;;;0.60;95.00;;;;;;5075961;28;20225;-76
2022/01/07 02:36:48;;;;;;;10.35;5.57;;;0.70;94.40;;;;;;5072848;28;20225;-75
2022/01/07 02:39:30;;;;;;;12.43;6.60;;;0.80;94.00;;;;;;5073210;28;20253;-75
2022/01/07 02:41:57;;;;;;;8.82;5.60;;;0.80;93.50;;;;;;5073226;28;20243;-76
2022/01/07 02:44:24;;;;;;;11.35;6.03;;;0.90;93.00;;;;;;5072354;28;20674;-75
2022/01/07 02:46:51;;;;;;;7.97;6.10;;;0.90;92.70;;;;;;5072565;28;20296;-76
2022/01/07 02:49:19;;;;;;;9.70;5.93;;;1.00;92.50;;;;;;5072639;28;20221;-76
2022/01/07 02:51:49;;;;;;;8.77;5.53;;;1.10;92.10;;;;;;5072969;28;20271;-76
2022/01/07 02:54:16;;;;;;;7.78;5.40;;;1.10;91.70;;;;;;5073063;28;20275;-76
2022/01/07 02:56:43;;;;;;;10.23;4.80;;;1.20;90.80;;;;;;5071904;28;20226;-76
2022/01/07 02:59:11;;;;;;;7.78;4.50;;;1.20;90.10;;;;;;5072496;28;20230;-76
2022/01/07 03:01:39;;;;;;;9.45;5.00;;;1.20;88.00;;;;;;5072405;28;20660;-76
2022/01/07 03:04:07;;;;;;;7.25;4.07;;;1.20;86.50;;;;;;5073204;28;20210;-75
2022/01/07 03:06:35;;;;;;;6.95;4.10;;;1.20;85.40;;;;;;5073091;28;20208;-76
2022/01/07 03:09:05;;;;;;;7.85;4.55;;;1.10;84.60;;;;;;5072560;28;20253;-75
2022/01/07 03:11:33;;;;;;;9.20;4.45;;;0.90;84.10;;;;;;5072902;28;20209;-77
2022/01/07 03:14:00;;;;;;;9.75;4.85;;;0.90;84.80;;;;;;5075423;28;20210;-76
2022/01/07 03:16:27;;;;;;;7.85;4.75;;;0.80;85.20;;;;;;5087524;28;20289;-77
2022/01/07 03:18:54;;;;;;;10.10;4.80;;;0.80;85.50;;;;;;5088092;28;20241;-76
2022/01/07 03:21:21;;;;;;;12.98;5.45;;;0.80;86.70;;;;;;5087973;28;20225;-76
2022/01/07 03:23:48;;;;;;;8.45;4.93;;;0.90;86.00;;;;;;5082377;28;20206;-78
2022/01/07 03:26:16;;;;;;;9.82;4.57;;;0.90;85.90;;;;;;5073584;28;20205;-75
2022/01/07 03:28:44;;;;;;;8.50;5.03;;;0.90;86.80;;;;;;5073225;28;20234;-76
2022/01/07 03:31:11;;;;;;;12.30;4.72;;;1.00;86.20;;;;;;5073232;28;20243;-75
2022/01/07 03:33:38;;;;;;;11.80;5.10;;;1.10;86.20;;;;;;5073699;28;20614;-75
2022/01/07 03:36:05;;;;;;;7.82;4.22;;;1.10;85.50;;;;;;5073620;28;20283;-75
2022/01/07 03:38:32;;;;;;;5.13;4.35;;;1.20;85.20;;;;;;5074066;28;20336;-78
2022/01/07 03:40:59;;;;;;;8.40;4.20;;;1.20;84.80;;;;;;5074053;28;20239;-75
2022/01/07 03:43:28;;;;;;;10.25;4.45;;;1.20;83.80;;;;;;5072804;28;20304;-78
2022/01/07 03:45:54;;;;;;;11.77;5.93;;;1.20;83.90;;;;;;5072649;28;20670;-76
2022/01/07 03:48:22;;;;;;;10.30;4.30;;;1.20;84.00;;;;;;5073365;28;20337;-77
2022/01/07 03:50:48;;;;;;;4.72;3.85;;;1.30;83.50;;;;;;5074952;28;20629;-77
2022/01/07 03:53:15;;;;;;;5.53;4.28;;;1.30;82.60;;;;;;5078355;28;20281;-76
2022/01/07 03:55:42;;;;;;;8.90;4.18;;;1.20;82.20;;;;;;5077940;28;20228;-77
2022/01/07 03:58:09;;;;;;;10.07;4.18;;;1.20;81.30;;;;;;5078607;28;20614;-77
2022/01/07 04:00:41;;;;;;;5.20;3.42;;;1.10;81.10;;;;;;5074085;28;20217;-77
2022/01/07 04:03:11;;;;;;;8.57;3.78;;;1.10;81.10;;;;;;5073433;28;20677;-76
2022/01/07 04:05:38;;;;;;;8.93;4.22;;;1.10;81.00;;;;;;5072941;28;20642;-77
2022/01/07 04:08:06;;;;;;;9.48;4.00;;;0.90;81.80;;;;;;5075266;28;20311;-77
2022/01/07 04:10:33;;;;;;;5.28;3.60;;;0.90;82.10;;;;;;5076790;28;20680;-77
2022/01/07 04:13:00;;;;;;;4.63;3.70;;;0.80;82.80;;;;;;5077238;28;20209;-76
2022/01/07 04:15:27;;;;;;;9.43;4.05;;;0.80;83.70;;;;;;5082749;28;20273;-76
2022/01/07 04:17:56;;;;;;;7.47;3.83;;;0.80;84.70;;;;;;5093262;28;20230;-76
2022/01/07 04:20:25;;;;;;;7.18;4.10;;;0.80;85.60;;;;;;5085343;28;20308;-76
2022/01/07 04:22:52;;;;;;;5.28;3.75;;;0.90;86.10;;;;;;5091793;28;20198;-77
2022/01/07 04:25:21;;;;;;;11.07;4.15;;;0.90;85.80;;;;;;5090785;28;20237;-76
2022/01/07 04:27:50;;;;;;;8.00;5.32;;;0.80;86.10;;;;;;5077153;28;20300;-76
2022/01/07 04:30:18;;;;;;;7.88;4.47;;;0.70;86.40;;;;;;5077922;28;20253;-77
2022/01/07 04:32:46;;;;;;;14.50;5.03;;;0.80;87.00;;;;;;5076146;28;20206;-78
2022/01/07 04:35:15;;;;;;;8.38;4.85;;;0.70;86.90;;;;;;5076368;28;20212;-77
2022/01/07 04:37:42;;;;;;;8.75;5.00;;;0.70;88.00;;;;;;5077779;28;20708;-78
2022/01/07 04:40:15;;;;;;;7.95;5.18;;;0.70;89.40;;;;;;5078023;28;20233;-76
2022/01/07 04:42:43;;;;;;;10.65;5.43;;;0.80;90.00;;;;;;5080660;28;20281;-79
2022/01/07 04:45:11;;;;;;;14.70;5.32;;;0.80;89.80;;;;;;5084569;28;20214;-78
2022/01/07 04:47:39;;;;;;;9.00;5.38;;;0.90;90.00;;;;;;5085033;28;20226;-76
2022/01/07 04:50:08;;;;;;;9.45;5.90;;;0.90;90.00;;;;;;5077593;28;20731;-79
2022/01/07 04:52:38;;;;;;;8.95;4.75;;;0.90;90.20;;;;;;5085436;28;20624;-78
2022/01/07 04:55:06;;;;;;;12.15;5.72;;;1.00;90.20;;;;;;5076463;28;20206;-77
2022/01/07 04:57:33;;;;;;;11.60;6.18;;;1.00;90.20;;;;;;5075374;28;20249;-77
2022/01/07 05:00:00;;;;;;;8.43;5.80;;;1.10;90.20;;;;;;5075394;28;20252;-77
2022/01/07 05:02:27;;;;;;;13.27;6.05;;;1.10;90.10;;;;;;5077450;28;20273;-78
2022/01/07 05:04:54;;;;;;;9.13;5.97;;;1.20;90.10;;;;;;5077321;28;20236;-78
2022/01/07 05:07:21;;;;;;;11.25;6.97;;;1.20;90.10;;;;;;5077406;28;20300;-78
2022/01/07 05:09:49;;;;;;;13.55;6.57;;;1.30;90.10;;;;;;5077495;28;20962;-78
2022/01/07 05:12:16;;;;;;;11.15;6.72;;;1.30;89.90;;;;;;5079351;28;20222;-78
2022/01/07 05:14:43;;;;;;;11.20;7.00;;;1.30;89.30;;;;;;5075161;28;20206;-78
2022/01/07 05:17:10;;;;;;;10.05;6.45;;;1.40;89.20;;;;;;5075520;28;20588;-78
2022/01/07 05:19:37;;;;;;;11.32;7.60;;;1.40;88.90;;;;;;5075200;28;20237;-76
2022/01/07 05:22:04;;;;;;;10.70;6.53;;;1.40;89.30;;;;;;5076515;28;20296;-77
2022/01/07 05:24:31;;;;;;;16.35;7.00;;;1.40;89.20;;;;;;5076047;28;20304;-76
2022/01/07 05:26:59;;;;;;;10.13;6.20;;;1.40;88.40;;;;;;5075077;28;20233;-76
2022/01/07 05:29:26;;;;;;;12.43;6.45;;;1.40;88.30;;;;;;5075083;28;20726;-74
2022/01/07 05:31:53;;;;;;;12.50;6.90;;;1.40;87.80;;;;;;5075320;28;20267;-75
2022/01/07 05:34:20;;;;;;;13.95;6.95;;;1.40;88.30;;;;;;5074901;28;20233;-77
2022/01/07 05:36:47;;;;;;;11.05;6.90;;;1.50;87.50;;;;;;5074639;28;20295;-75
2022/01/07 05:39:14;;;;;;;12.55;6.88;;;1.50;86.90;;;;;;5075021;28;20713;-76
2022/01/07 05:41:40;;;;;;;9.73;6.72;;;1.50;87.10;;;;;;5074988;28;20286;-76
2022/01/07 05:44:09;;;;;;;13.27;8.30;;;1.50;86.60;;;;;;5075433;28;20288;-76
2022/01/07 05:46:36;;;;;;;14.23;7.00;;;1.50;86.60;;;;;;5076496;28;20197;-76
2022/01/07 05:49:03;;;;;;;17.40;7.45;;;1.50;86.90;;;;;;5079366;28;20229;-77
2022/01/07 05:51:30;;;;;;;13.68;7.53;;;1.50;87.40;;;;;;5083609;28;20205;-76
2022/01/07 05:53:57;;;;;;;13.50;7.63;;;1.60;87.40;;;;;;5080326;28;20233;-77
2022/01/07 05:56:24;;;;;;;12.65;7.70;;;1.60;86.70;;;;;;5077222;28;20634;-77
2022/01/07 05:58:51;;;;;;;12.05;7.28;;;1.70;86.80;;;;;;5079426;28;20229;-78
2022/01/07 06:01:19;;;;;;;10.68;7.15;;;1.60;86.10;;;;;;5074688;28;20210;-77
2022/01/07 06:03:46;;;;;;;11.60;6.75;;;1.60;86.70;;;;;;5074709;28;20209;-77
2022/01/07 06:06:13;;;;;;;13.75;6.80;;;1.60;86.70;;;;;;5074849;28;20352;-77
2022/01/07 06:08:40;;;;;;;8.95;6.90;;;1.60;86.70;;;;;;5075023;28;20323;-77
2022/01/07 06:11:07;;;;;;;12.73;8.02;;;1.60;86.70;;;;;;5075257;28;20334;-77
2022/01/07 06:13:34;;;;;;;10.57;6.40;;;1.60;86.70;;;;;;5083821;28;20210;-77
2022/01/07 06:16:02;;;;;;;11.30;7.00;;;1.70;86.70;;;;;;5079186;28;20209;-77
2022/01/07 06:18:30;;;;;;;11.05;6.07;;;1.60;86.20;;;;;;5054948;28;20631;-77
2022/01/07 06:20:57;;;;;;;18.55;7.63;;;1.60;86.30;;;;;;5055161;28;20282;-77
2022/01/07 06:23:24;;;;;;;9.82;6.85;;;1.60;86.10;;;;;;5056555;28;20298;-77
2022/01/07 06:25:50;;;;;;;11.32;7.40;;;1.50;86.40;;;;;;5056793;28;20268;-77
2022/01/07 06:28:18;;;;;;;12.73;6.43;;;1.60;86.70;;;;;;5055996;28;20228;-78
2022/01/07 06:30:44;;;;;;;9.73;6.15;;;1.60;86.50;;;;;;5053896;28;20260;-78
2022/01/07 06:33:12;;;;;;;9.10;6.28;;;1.50;86.40;;;;;;5055695;28;20217;-77
2022/01/07 06:35:40;;;;;;;9.73;6.85;;;1.50;86.60;;;;;;5058035;28;20203;-77
2022/01/07 06:38:07;;;;;;;12.13;6.90;;;1.60;86.70;;;;;;5062844;28;20294;-77
2022/01/07 06:40:34;;;;;;;8.70;6.28;;;1.60;86.00;;;;;;5059909;28;20275;-79
2022/01/07 06:43:01;;;;;;;9.82;6.05;;;1.50;85.90;;;;;;5057665;28;20289;-77
2022/01/07 06:45:28;;;;;;;9.40;6.50;;;1.50;85.40;;;;;;5058247;28;20213;-78
2022/01/07 06:47:55;;;;;;;12.02;5.97;;;1.50;85.70;;;;;;5058625;28;20202;-77
2022/01/07 06:50:27;;;;;;;13.20;6.30;;;1.50;86.20;;;;;;5063394;28;20227;-77
2022/01/07 06:53:07;;;;;;;10.82;5.72;;;1.50;86.60;;;;;;5067384;28;20734;-79
2022/01/07 06:56:08;;;;;;;10.98;6.50;;;1.60;86.70;;;;;;5067408;28;20271;-78
2022/01/07 06:58:34;;;;;;;10.07;6.60;;;1.70;86.50;;;;;;5065532;28;20245;-80
2022/01/07 07:01:01;;;;;;;9.20;5.30;;;1.70;85.80;;;;;;5062023;28;20206;-77
2022/01/07 07:03:28;;;;;;;8.23;5.13;;;1.80;85.10;;;;;;5058488;28;20211;-77
2022/01/07 07:05:55;;;;;;;7.65;5.30;;;1.80;84.40;;;;;;5062832;28;20234;-78
2022/01/07 07:08:23;;;;;;;7.70;5.80;;;1.90;83.30;;;;;;5056747;28;20723;-77
2022/01/07 07:10:50;;;;;;;6.40;4.93;;;1.90;81.70;;;;;;5056756;28;20218;-77
2022/01/07 07:13:17;;;;;;;9.48;4.70;;;2.00;80.40;;;;;;5060342;28;20234;-77
2022/01/07 07:15:44;;;;;;;8.07;4.57;;;2.10;79.00;;;;;;5069711;28;20249;-78
2022/01/07 07:18:11;;;;;;;7.57;4.57;;;2.20;77.20;;;;;;5066661;28;20226;-78
2022/01/07 07:20:38;;;;;;;7.30;4.20;;;2.30;74.90;;;;;;5066611;28;20289;-78
2022/01/07 07:23:05;;;;;;;7.70;3.92;;;2.40;72.90;;;;;;5066150;28;20248;-79
2022/01/07 07:25:33;;;;;;;10.30;4.53;;;2.50;70.90;;;;;;5064247;28;20277;-77
2022/01/07 07:28:00;;;;;;;9.93;4.60;;;2.50;70.70;;;;;;5062608;28;20262;-78
2022/01/07 07:30:34;;;;;;;5.40;3.33;;;2.50;69.80;;;;;;5052839;28;20206;-78
2022/01/07 07:33:18;;;;;;;4.38;3.60;;;2.60;69.30;;;;;;5066389;28;20198;-78
2022/01/07 07:38:29;;;;;;;9.00;4.10;;;2.60;67.50;;;;;;5057237;28;20286;-78
2022/01/07 07:40:57;;;;;;;11.32;4.28;;;2.60;66.70;;;;;;5054781;28;20222;-80
2022/01/07 07:43:24;;;;;;;6.35;4.00;;;2.70;66.20;;;;;;5058931;28;20274;-79
2022/01/07 07:45:51;;;;;;;4.97;3.53;;;2.80;65.80;;;;;;5062913;28;20217;-76
2022/01/07 07:48:18;;;;;;;5.25;3.42;;;2.80;64.80;;;;;;5059978;28;20223;-75
2022/01/07 07:50:45;;;;;;;4.88;3.35;;;2.80;64.40;;;;;;5057237;28;20183;-76
2022/01/07 07:53:12;;;;;;;11.80;4.30;;;2.80;63.90;;;;;;5057693;28;20210;-76
2022/01/07 07:55:39;;;;;;;5.68;3.72;;;2.90;63.50;;;;;;5049695;28;20255;-77
2022/01/07 07:58:07;;;;;;;4.72;3.83;;;2.90;63.00;;;;;;5043813;28;20237;-75
2022/01/07 08:00:34;;;;;;;6.25;4.10;;;2.90;62.60;;;;;;5056351;28;20198;-77
2022/01/07 08:03:01;;;;;;;7.43;3.83;;;2.90;63.20;;;;;;5051870;28;20207;-75
2022/01/07 08:05:28;;;;;;;8.98;3.45;;;2.90;62.60;;;;;;5045283;28;20205;-74
2022/01/07 08:07:56;;;;;;;5.47;3.78;;;2.90;62.50;;;;;;5048731;28;20294;-77
2022/01/07 08:10:25;;;;;;;15.48;3.83;;;2.90;62.60;;;;;;5042365;28;20256;-77
2022/01/07 08:13:02;;;;;;;4.78;3.97;;;3.00;62.60;;;;;;5047869;28;20207;-78
2022/01/07 08:18:15;;;;;;;7.53;3.88;;;3.10;61.60;;;;;;5044611;28;20318;-78
2022/01/07 08:20:42;;;;;;;7.05;4.18;;;3.10;60.70;;;;;;5044209;28;20350;-76
2022/01/07 08:23:09;;;;;;;6.47;3.33;;;3.10;60.20;;;;;;5044571;28;20301;-79
2022/01/07 08:25:36;;;;;;;4.63;3.60;;;3.20;60.50;;;;;;5044703;28;20217;-77
2022/01/07 08:28:04;;;;;;;5.95;3.30;;;3.20;60.30;;;;;;5042955;28;20246;-77
2022/01/07 08:30:37;;;;;;;4.70;3.17;;;3.30;60.00;;;;;;5045127;28;20361;-78
2022/01/07 08:35:49;;;;;;;6.65;3.05;;;3.30;59.30;;;;;;5046790;28;20318;-76
2022/01/07 08:38:16;;;;;;;4.97;2.75;;;3.40;58.50;;;;;;5046399;28;20244;-77
2022/01/07 08:40:43;;;;;;;6.18;3.05;;;3.40;58.50;;;;;;5044867;28;20242;-75
2022/01/07 08:43:10;;;;;;;4.25;2.90;;;3.40;58.20;;;;;;5046763;28;20207;-78
2022/01/07 08:45:42;;;;;;;4.38;2.53;;;3.50;57.80;;;;;;5048084;28;20279;-78
2022/01/07 08:48:09;;;;;;;5.60;2.65;;;3.50;56.90;;;;;;5046038;28;20210;-80
2022/01/07 08:50:36;;;;;;;6.32;2.95;;;3.50;56.40;;;;;;5047016;28;20276;-78
2022/01/07 08:53:03;;;;;;;3.88;3.00;;;3.50;56.50;;;;;;5052567;28;20198;-78
2022/01/07 08:55:30;;;;;;;5.85;2.85;;;3.60;56.50;;;;;;5059308;28;20203;-78
2022/01/07 08:57:57;;;;;;;5.18;2.58;;;3.60;56.40;;;;;;5060239;28;20287;-78
2022/01/07 09:00:24;;;;;;;5.47;2.85;;;3.60;56.30;;;;;;5052114;28;20195;-78
2022/01/07 09:02:53;;;;;;;2.42;2.22;;;3.60;56.00;;;;;;5045370;28;20201;-80
2022/01/07 09:05:19;;;;;;;6.85;3.05;;;3.60;55.80;;;;;;5053905;28;20273;-79
2022/01/07 09:07:46;;;;;;;6.00;2.65;;;3.60;55.80;;;;;;5064956;28;20210;-77
2022/01/07 09:10:13;;;;;;;5.07;2.75;;;3.70;55.80;;;;;;5055645;28;20218;-77
2022/01/07 09:12:40;;;;;;;6.75;3.65;;;3.70;55.70;;;;;;5054388;28;20680;-77
2022/01/07 09:15:08;;;;;;;6.18;2.50;;;3.70;55.40;;;;;;5062727;28;20207;-74
2022/01/07 09:17:35;;;;;;;6.35;3.30;;;3.70;55.10;;;;;;5062397;28;20313;-79
2022/01/07 09:20:05;;;;;;;4.97;2.85;;;3.80;54.40;;;;;;5071135;28;20305;-79
2022/01/07 09:22:32;;;;;;;6.03;2.78;;;3.80;54.70;;;;;;5055653;28;20203;-77
2022/01/07 09:24:59;;;;;;;4.43;2.90;;;3.80;54.80;;;;;;5050089;28;20203;-77
2022/01/07 09:27:26;;;;;;;3.28;2.90;;;3.80;54.60;;;;;;5044706;28;20199;-77
2022/01/07 09:29:53;;;;;;;5.85;3.38;;;3.80;55.00;;;;;;5047420;28;20307;-77
2022/01/07 09:32:20;;;;;;;5.30;2.90;;;3.90;54.40;;;;;;5064459;28;20195;-75
2022/01/07 09:34:47;;;;;;;4.53;3.17;;;3.90;54.40;;;;;;5067405;28;20323;-77
2022/01/07 09:37:16;;;;;;;4.80;3.55;;;3.90;54.40;;;;;;5070108;28;20214;-77
2022/01/07 09:39:42;;;;;;;2.92;2.60;;;3.80;54.50;;;;;;5071834;28;20241;-77
2022/01/07 09:42:10;;;;;;;7.43;3.45;;;3.80;55.10;;;;;;5066309;28;20552;-80
2022/01/07 09:44:38;;;;;;;2.92;2.63;;;3.80;55.60;;;;;;5066516;28;20207;-79
2022/01/07 09:47:05;;;;;;;7.57;3.97;;;3.70;56.50;;;;;;5050584;28;20198;-76
2022/01/07 09:49:34;;;;;;;5.90;3.45;;;3.60;57.90;;;;;;5055920;28;20229;-77
2022/01/07 09:52:02;;;;;;;4.18;3.20;;;3.50;59.50;;;;;;5064479;28;20724;-76
2022/01/07 09:54:30;;;;;;;9.45;4.30;;;3.30;61.30;;;;;;5063685;28;20199;-77
2022/01/07 09:56:57;;;;;;;11.13;3.63;;;3.20;62.80;;;;;;5064937;28;20289;-78
2022/01/07 09:59:24;;;;;;;7.53;3.35;;;3.10;66.00;;;;;;5054975;28;20277;-78
2022/01/07 10:01:56;;;;;;;4.53;3.83;;;3.10;68.60;;;;;;5047957;28;20322;-81
2022/01/07 10:04:28;;;;;;;8.00;3.97;;;2.90;71.20;;;;;;5048232;28;20514;-77
2022/01/07 10:07:10;;;;;;;6.10;3.90;;;2.80;73.40;;;;;;5051678;28;20324;-78
2022/01/07 10:09:39;;;;;;;7.00;3.35;;;2.70;75.50;;;;;;5055158;28;20241;-77
2022/01/07 10:12:07;;;;;;;8.27;4.70;;;2.70;77.70;;;;;;5057951;28;20207;-80
2022/01/07 10:14:36;;;;;;;5.03;3.55;;;2.70;78.80;;;;;;5055484;28;20242;-79
2022/01/07 10:17:04;;;;;;;7.13;5.32;;;2.70;79.50;;;;;;5060628;28;20221;-80
2022/01/07 10:19:36;;;;;;;8.23;4.80;;;2.70;80.90;;;;;;5064136;28;20230;-78
2022/01/07 10:22:05;;;;;;;8.50;4.70;;;2.70;81.90;;;;;;5064130;28;20269;-80
2022/01/07 10:24:33;;;;;;;5.65;4.65;;;2.70;82.20;;;;;;5071068;28;20269;-77
2022/01/07 10:27:12;;;;;;;6.93;4.75;;;2.80;82.40;;;;;;5074378;28;20190;-77
2022/01/07 10:29:41;;;;;;;8.15;4.75;;;2.70;82.00;;;;;;5070451;28;20218;-75
2022/01/07 10:32:29;;;;;;;9.27;4.93;;;2.80;82.00;;;;;;5070746;28;20209;-79
2022/01/07 10:35:08;;;;;;;6.97;4.80;;;2.80;82.50;;;;;;5053792;28;20222;-76
2022/01/07 10:37:35;;;;;;;5.45;4.32;;;2.90;81.20;;;;;;5048861;28;20210;-78
2022/01/07 10:40:19;;;;;;;7.25;4.55;;;2.90;80.30;;;;;;5045757;28;20230;-80
2022/01/07 10:42:48;;;;;;;7.97;4.60;;;2.90;79.70;;;;;;5042143;28;20422;-75
2022/01/07 10:45:15;;;;;;;4.68;4.18;;;3.00;79.80;;;;;;5047008;28;20793;-76
2022/01/07 10:47:42;;;;;;;4.82;4.05;;;3.00;79.80;;;;;;5043892;28;20203;-76
2022/01/07 10:50:16;;;;;;;5.10;4.38;;;3.00;79.70;;;;;;5050497;28;20227;-75
2022/01/07 10:52:43;;;;;;;11.13;4.40;;;3.00;79.70;;;;;;5047467;28;20206;-75
2022/01/07 10:55:11;;;;;;;6.70;3.95;;;3.10;79.80;;;;;;5037131;28;20213;-80
2022/01/07 10:57:41;;;;;;;5.20;3.80;;;3.20;79.10;;;;;;5054916;28;20292;-74
2022/01/07 11:00:12;;;;;;;7.85;4.50;;;3.30;77.40;;;;;;5054471;28;20237;-79
2022/01/07 11:02:40;;;;;;;6.20;4.80;;;3.30;77.10;;;;;;5046414;28;20203;-77
2022/01/07 11:05:07;;;;;;;4.75;3.78;;;3.40;76.30;;;;;;5049295;28;20203;-76
2022/01/07 11:07:35;;;;;;;5.18;3.47;;;3.40;75.90;;;;;;5048899;28;20240;-78
2022/01/07 11:10:03;;;;;;;5.88;4.47;;;3.50;75.10;;;;;;5037188;28;20246;-77
2022/01/07 11:12:32;;;;;;;4.70;4.20;;;3.60;75.00;;;;;;5064516;28;20297;-79
2022/01/07 11:14:59;;;;;;;6.25;4.50;;;3.60;74.10;;;;;;5068627;28;20213;-77
2022/01/07 11:17:29;;;;;;;7.65;4.20;;;3.60;72.90;;;;;;5070341;28;20211;-77
2022/01/07 11:19:59;;;;;;;7.53;4.10;;;3.70;73.40;;;;;;5073945;28;20242;-78
2022/01/07 11:22:27;;;;;;;5.80;3.42;;;3.90;72.10;;;;;;5073872;28;20198;-77
2022/01/07 11:25:06;;;;;;;5.82;4.30;;;3.90;71.30;;;;;;5066688;28;20225;-78
2022/01/07 11:27:50;;;;;;;6.32;4.13;;;4.00;69.90;;;;;;5072273;28;20940;-78
2022/01/07 11:30:18;;;;;;;7.03;4.35;;;4.10;68.90;;;;;;5062503;28;20237;-79
2022/01/07 11:32:48;;;;;;;7.60;4.65;;;4.20;68.40;;;;;;5073622;28;20192;-77
2022/01/07 11:35:47;;;;;;;7.97;3.92;;;4.10;67.90;;;;;;5075303;28;20205;-75
2022/01/07 11:38:39;;;;;;;5.05;3.70;;;4.10;68.10;;;;;;5081371;28;20214;-79
2022/01/07 11:41:32;;;;;;;5.85;4.18;;;4.10;68.30;;;;;;5060183;28;20262;-78
2022/01/07 11:44:10;;;;;;;5.45;3.50;;;4.10;68.00;;;;;;5075130;28;20246;-80
2022/01/07 11:46:37;;;;;;;8.32;4.30;;;4.10;67.90;;;;;;5075225;28;20166;-78
2022/01/07 11:49:06;;;;;;;10.75;4.57;;;4.10;67.10;;;;;;5066357;28;20239;-77
2022/01/07 11:51:42;;;;;;;6.35;3.72;;;4.10;67.90;;;;;;5053480;28;20195;-78
2022/01/07 11:54:12;;;;;;;5.60;3.83;;;4.10;67.20;;;;;;5055827;28;20183;-80
2022/01/07 11:56:40;;;;;;;5.72;3.75;;;4.20;66.80;;;;;;5055655;28;20176;-78
2022/01/07 11:59:27;;;;;;;8.27;4.90;;;4.20;66.70;;;;;;5055572;28;20767;-78
2022/01/07 12:02:02;;;;;;;5.38;3.38;;;4.30;66.70;;;;;;5060318;28;20240;-78
2022/01/07 12:04:32;;;;;;;8.07;3.80;;;4.30;66.20;;;;;;5071367;28;20190;-79
2022/01/07 12:07:03;;;;;;;4.55;3.25;;;4.20;66.60;;;;;;5063383;28;20199;-80
2022/01/07 12:09:38;;;;;;;7.18;3.88;;;4.30;67.40;;;;;;5046614;28;20227;-77
2022/01/07 12:12:08;;;;;;;7.75;4.40;;;4.40;67.50;;;;;;5053054;28;20586;-80
2022/01/07 12:14:40;;;;;;;5.78;3.72;;;4.30;66.70;;;;;;5063388;28;20206;-80
2022/01/07 12:17:13;;;;;;;6.80;3.72;;;4.10;67.50;;;;;;5059401;28;20226;-79
2022/01/07 12:20:16;;;;;;;8.13;3.60;;;4.10;67.90;;;;;;5061239;28;20230;-78
2022/01/07 12:22:53;;;;;;;4.93;3.90;;;3.90;68.70;;;;;;5071122;28;20210;-79
2022/01/07 12:25:22;;;;;;;5.45;4.40;;;3.90;70.30;;;;;;5068467;28;20190;-80
2022/01/07 12:27:49;;;;;;;7.53;3.83;;;3.90;69.80;;;;;;5051223;28;20207;-78
2022/01/07 12:30:16;;;;;;;9.20;3.80;;;3.90;69.90;;;;;;5063544;28;20234;-78
2022/01/07 12:32:44;;;;;;;6.43;4.43;;;3.90;69.90;;;;;;5071065;28;20268;-81
2022/01/07 12:35:13;;;;;;;7.40;3.65;;;3.90;70.20;;;;;;5060248;28;20217;-80
2022/01/07 12:37:40;;;;;;;5.50;3.45;;;4.00;70.20;;;;;;5064415;28;20214;-80
2022/01/07 12:40:11;;;;;;;5.15;3.90;;;4.00;69.60;;;;;;5073305;28;20230;-79
2022/01/07 12:42:41;;;;;;;9.13;3.22;;;4.00;69.00;;;;;;5075392;28;20190;-78
2022/01/07 12:45:14;;;;;;;3.90;3.45;;;4.10;68.20;;;;;;5078078;28;20263;-76
2022/01/07 12:47:41;;;;;;;4.32;3.25;;;4.20;68.00;;;;;;5073389;28;20205;-77
2022/01/07 12:50:09;;;;;;;6.53;4.05;;;4.10;66.80;;;;;;5069600;28;20245;-76
2022/01/07 12:52:40;;;;;;;9.55;4.35;;;4.20;67.00;;;;;;5072301;28;20213;-77
2022/01/07 12:55:11;;;;;;;5.05;4.60;;;4.30;66.70;;;;;;5066248;28;20237;-78
2022/01/07 12:57:42;;;;;;;7.68;2.75;;;4.30;66.10;;;;;;5077307;28;20207;-78
2022/01/07 13:00:28;;;;;;;4.57;2.90;;;4.30;66.60;;;;;;5073940;28;20222;-79
2022/01/07 13:02:56;;;;;;;8.50;3.22;;;4.40;66.30;;;;;;5061099;28;20175;-78
2022/01/07 13:05:28;;;;;;;6.35;3.30;;;4.30;65.90;;;;;;5078919;28;20218;-78
2022/01/07 13:07:58;;;;;;;6.60;2.45;;;4.30;66.00;;;;;;5075636;28;20272;-77
2022/01/07 13:10:28;;;;;;;6.10;2.70;;;4.20;66.30;;;;;;5072396;28;20266;-78